Dinghai, China
Current Conditions -  °F | °C
As of 4:00 PM on Sunday 26 Oct 2014 (Local Time) from ZSNB Reporting Station
Few Clouds Few Clouds  
Wind Chill: 79°   Ceiling: Unl
Heat Index: 80°   Visibility: 4mi
Dew Point: 63°   Wind: 7mph
Humidity: 57%   Direction: 40°NE
Pressure: 30.03"   Gusts: NA
Location:  30.02°N, 122.1°E
Report Text: ZSNB 260800Z 04003MPS 010V080 6000 FEW040 26/17 Q1017 NOSIG
Loading
Personal Weather Stations






























Interactive Weather Map
Tropical Storm Tracking
New forecast layout! Learn more

10-Day Weather Forecast

Advertisements
Track Severe Weather on mobile